sensor_id;sensor_type;location;lat;lon;timestamp;P1;durP1;ratioP1;P2;durP2;ratioP2
11046;SDS011;5576;50.008;10.596;2023-09-18T00:00:54;4.15;;;3.85;;
11046;SDS011;5576;50.008;10.596;2023-09-18T00:03:24;4.70;;;4.30;;
11046;SDS011;5576;50.008;10.596;2023-09-18T00:05:59;5.20;;;4.35;;
11046;SDS011;5576;50.008;10.596;2023-09-18T00:08:25;4.80;;;4.40;;
11046;SDS011;5576;50.008;10.596;2023-09-18T00:10:53;4.90;;;4.40;;
11046;SDS011;5576;50.008;10.596;2023-09-18T00:13:19;4.70;;;4.22;;
11046;SDS011;5576;50.008;10.596;2023-09-18T00:15:45;5.18;;;4.68;;
11046;SDS011;5576;50.008;10.596;2023-09-18T00:18:13;4.90;;;4.50;;
11046;SDS011;5576;50.008;10.596;2023-09-18T00:20:41;5.22;;;4.53;;
11046;SDS011;5576;50.008;10.596;2023-09-18T00:23:07;5.05;;;4.65;;
11046;SDS011;5576;50.008;10.596;2023-09-18T00:25:40;4.80;;;4.40;;
11046;SDS011;5576;50.008;10.596;2023-09-18T00:28:09;5.05;;;4.55;;
11046;SDS011;5576;50.008;10.596;2023-09-18T00:30:37;5.38;;;4.88;;
11046;SDS011;5576;50.008;10.596;2023-09-18T00:33:07;5.38;;;4.88;;
11046;SDS011;5576;50.008;10.596;2023-09-18T00:35:33;5.27;;;4.77;;
11046;SDS011;5576;50.008;10.596;2023-09-18T00:38:01;5.47;;;4.87;;
11046;SDS011;5576;50.008;10.596;2023-09-18T00:40:32;5.82;;;4.80;;
11046;SDS011;5576;50.008;10.596;2023-09-18T00:42:58;5.38;;;4.88;;
11046;SDS011;5576;50.008;10.596;2023-09-18T00:45:24;5.77;;;5.20;;
11046;SDS011;5576;50.008;10.596;2023-09-18T00:47:50;5.53;;;5.03;;
11046;SDS011;5576;50.008;10.596;2023-09-18T00:50:16;5.60;;;5.10;;
11046;SDS011;5576;50.008;10.596;2023-09-18T00:52:41;5.55;;;5.10;;
11046;SDS011;5576;50.008;10.596;2023-09-18T00:55:08;5.82;;;5.15;;
11046;SDS011;5576;50.008;10.596;2023-09-18T00:57:34;5.40;;;4.90;;
11046;SDS011;5576;50.008;10.596;2023-09-18T01:00:03;6.03;;;5.40;;
11046;SDS011;5576;50.008;10.596;2023-09-18T01:02:32;6.38;;;5.60;;
11046;SDS011;5576;50.008;10.596;2023-09-18T01:04:58;5.50;;;5.00;;
11046;SDS011;5576;50.008;10.596;2023-09-18T01:07:24;5.40;;;4.90;;
11046;SDS011;5576;50.008;10.596;2023-09-18T01:09:49;5.53;;;5.03;;
11046;SDS011;5576;50.008;10.596;2023-09-18T01:15:05;5.55;;;5.00;;
11046;SDS011;5576;50.008;10.596;2023-09-18T01:17:37;5.63;;;5.00;;
11046;SDS011;5576;50.008;10.596;2023-09-18T01:20:05;5.80;;;5.30;;
11046;SDS011;5576;50.008;10.596;2023-09-18T01:22:34;5.82;;;5.22;;
11046;SDS011;5576;50.008;10.596;2023-09-18T01:25:00;5.75;;;5.25;;
11046;SDS011;5576;50.008;10.596;2023-09-18T01:27:26;5.70;;;5.00;;
11046;SDS011;5576;50.008;10.596;2023-09-18T01:29:51;5.53;;;5.03;;
11046;SDS011;5576;50.008;10.596;2023-09-18T01:32:22;5.93;;;5.32;;
11046;SDS011;5576;50.008;10.596;2023-09-18T01:34:56;5.57;;;5.07;;
11046;SDS011;5576;50.008;10.596;2023-09-18T01:37:26;5.50;;;5.00;;
11046;SDS011;5576;50.008;10.596;2023-09-18T01:40:03;5.50;;;5.00;;
11046;SDS011;5576;50.008;10.596;2023-09-18T01:42:32;5.60;;;5.10;;
11046;SDS011;5576;50.008;10.596;2023-09-18T01:44:59;6.38;;;5.50;;
11046;SDS011;5576;50.008;10.596;2023-09-18T01:47:25;5.50;;;5.00;;
11046;SDS011;5576;50.008;10.596;2023-09-18T01:49:54;5.50;;;5.00;;
11046;SDS011;5576;50.008;10.596;2023-09-18T01:52:19;5.30;;;4.90;;
11046;SDS011;5576;50.008;10.596;2023-09-18T01:54:45;5.50;;;5.00;;
11046;SDS011;5576;50.008;10.596;2023-09-18T01:57:17;6.03;;;5.45;;
11046;SDS011;5576;50.008;10.596;2023-09-18T01:59:46;6.25;;;5.32;;
11046;SDS011;5576;50.008;10.596;2023-09-18T02:02:15;5.72;;;5.22;;
11046;SDS011;5576;50.008;10.596;2023-09-18T02:04:43;5.32;;;4.85;;
11046;SDS011;5576;50.008;10.596;2023-09-18T02:07:10;5.78;;;5.22;;
11046;SDS011;5576;50.008;10.596;2023-09-18T02:09:39;5.20;;;4.80;;
11046;SDS011;5576;50.008;10.596;2023-09-18T02:12:07;5.60;;;5.10;;
11046;SDS011;5576;50.008;10.596;2023-09-18T02:14:33;5.50;;;5.03;;
11046;SDS011;5576;50.008;10.596;2023-09-18T02:16:59;5.60;;;5.10;;
11046;SDS011;5576;50.008;10.596;2023-09-18T02:19:25;5.50;;;5.00;;
11046;SDS011;5576;50.008;10.596;2023-09-18T02:21:55;5.55;;;5.05;;
11046;SDS011;5576;50.008;10.596;2023-09-18T02:24:22;5.82;;;5.32;;
11046;SDS011;5576;50.008;10.596;2023-09-18T02:26:48;5.47;;;4.90;;
11046;SDS011;5576;50.008;10.596;2023-09-18T02:29:14;5.32;;;4.82;;
11046;SDS011;5576;50.008;10.596;2023-09-18T02:31:40;5.33;;;4.93;;
11046;SDS011;5576;50.008;10.596;2023-09-18T02:34:05;5.30;;;4.80;;
11046;SDS011;5576;50.008;10.596;2023-09-18T02:36:32;5.35;;;4.70;;
11046;SDS011;5576;50.008;10.596;2023-09-18T02:38:58;5.30;;;4.80;;
11046;SDS011;5576;50.008;10.596;2023-09-18T02:41:27;5.40;;;4.90;;
11046;SDS011;5576;50.008;10.596;2023-09-18T02:43:53;5.20;;;4.80;;
11046;SDS011;5576;50.008;10.596;2023-09-18T02:46:22;5.60;;;5.10;;
11046;SDS011;5576;50.008;10.596;2023-09-18T02:48:48;5.40;;;4.90;;
11046;SDS011;5576;50.008;10.596;2023-09-18T02:51:18;5.38;;;4.90;;
11046;SDS011;5576;50.008;10.596;2023-09-18T02:53:43;5.22;;;4.78;;
11046;SDS011;5576;50.008;10.596;2023-09-18T02:56:12;5.15;;;4.75;;
11046;SDS011;5576;50.008;10.596;2023-09-18T02:58:38;5.40;;;4.90;;
11046;SDS011;5576;50.008;10.596;2023-09-18T03:01:07;5.82;;;5.32;;
11046;SDS011;5576;50.008;10.596;2023-09-18T03:03:33;5.25;;;4.78;;
11046;SDS011;5576;50.008;10.596;2023-09-18T03:06:01;5.37;;;4.87;;
11046;SDS011;5576;50.008;10.596;2023-09-18T03:08:29;5.30;;;4.80;;
11046;SDS011;5576;50.008;10.596;2023-09-18T03:10:55;5.72;;;4.80;;
11046;SDS011;5576;50.008;10.596;2023-09-18T03:13:22;5.25;;;4.75;;
11046;SDS011;5576;50.008;10.596;2023-09-18T03:15:48;5.60;;;5.10;;
11046;SDS011;5576;50.008;10.596;2023-09-18T03:18:14;5.10;;;4.70;;
11046;SDS011;5576;50.008;10.596;2023-09-18T03:20:41;4.73;;;4.33;;
11046;SDS011;5576;50.008;10.596;2023-09-18T03:23:11;4.50;;;4.10;;
11046;SDS011;5576;50.008;10.596;2023-09-18T03:25:39;5.45;;;4.95;;
11046;SDS011;5576;50.008;10.596;2023-09-18T03:28:05;5.33;;;4.83;;
11046;SDS011;5576;50.008;10.596;2023-09-18T03:30:32;5.43;;;4.93;;
11046;SDS011;5576;50.008;10.596;2023-09-18T03:32:58;5.60;;;5.10;;
11046;SDS011;5576;50.008;10.596;2023-09-18T03:35:25;5.30;;;4.80;;
11046;SDS011;5576;50.008;10.596;2023-09-18T03:37:56;5.68;;;5.18;;
11046;SDS011;5576;50.008;10.596;2023-09-18T03:40:22;5.75;;;4.93;;
11046;SDS011;5576;50.008;10.596;2023-09-18T03:42:49;5.45;;;4.95;;
11046;SDS011;5576;50.008;10.596;2023-09-18T03:45:15;4.82;;;4.43;;
11046;SDS011;5576;50.008;10.596;2023-09-18T03:47:44;4.80;;;4.40;;
11046;SDS011;5576;50.008;10.596;2023-09-18T03:50:10;4.90;;;4.50;;
11046;SDS011;5576;50.008;10.596;2023-09-18T03:52:37;5.20;;;4.70;;
11046;SDS011;5576;50.008;10.596;2023-09-18T03:55:06;5.85;;;4.93;;
11046;SDS011;5576;50.008;10.596;2023-09-18T03:57:32;4.90;;;4.50;;
11046;SDS011;5576;50.008;10.596;2023-09-18T03:59:58;5.22;;;4.70;;
11046;SDS011;5576;50.008;10.596;2023-09-18T04:02:24;4.97;;;4.53;;
11046;SDS011;5576;50.008;10.596;2023-09-18T04:04:51;5.10;;;4.70;;
11046;SDS011;5576;50.008;10.596;2023-09-18T04:07:21;5.28;;;4.70;;
11046;SDS011;5576;50.008;10.596;2023-09-18T04:09:49;5.00;;;4.50;;
11046;SDS011;5576;50.008;10.596;2023-09-18T04:12:15;5.35;;;4.88;;
11046;SDS011;5576;50.008;10.596;2023-09-18T04:14:41;5.30;;;4.80;;
11046;SDS011;5576;50.008;10.596;2023-09-18T04:17:07;5.20;;;4.70;;
11046;SDS011;5576;50.008;10.596;2023-09-18T04:19:33;7.43;;;4.88;;
11046;SDS011;5576;50.008;10.596;2023-09-18T04:21:58;5.32;;;4.82;;
11046;SDS011;5576;50.008;10.596;2023-09-18T04:24:25;5.17;;;4.77;;
11046;SDS011;5576;50.008;10.596;2023-09-18T04:26:51;5.35;;;4.85;;
11046;SDS011;5576;50.008;10.596;2023-09-18T04:29:17;5.67;;;5.13;;
11046;SDS011;5576;50.008;10.596;2023-09-18T04:31:43;5.15;;;4.65;;
11046;SDS011;5576;50.008;10.596;2023-09-18T04:34:10;5.15;;;4.50;;
11046;SDS011;5576;50.008;10.596;2023-09-18T04:36:36;5.30;;;4.80;;
11046;SDS011;5576;50.008;10.596;2023-09-18T04:39:04;5.20;;;4.70;;
11046;SDS011;5576;50.008;10.596;2023-09-18T04:41:31;5.53;;;5.03;;
11046;SDS011;5576;50.008;10.596;2023-09-18T04:43:57;5.32;;;4.82;;
11046;SDS011;5576;50.008;10.596;2023-09-18T04:46:24;5.30;;;4.80;;
11046;SDS011;5576;50.008;10.596;2023-09-18T04:48:51;5.45;;;4.95;;
11046;SDS011;5576;50.008;10.596;2023-09-18T04:51:16;5.47;;;4.97;;
11046;SDS011;5576;50.008;10.596;2023-09-18T04:53:57;5.10;;;4.70;;
11046;SDS011;5576;50.008;10.596;2023-09-18T04:56:23;5.27;;;4.80;;
11046;SDS011;5576;50.008;10.596;2023-09-18T04:58:51;5.45;;;4.95;;
11046;SDS011;5576;50.008;10.596;2023-09-18T05:01:18;5.50;;;5.00;;
11046;SDS011;5576;50.008;10.596;2023-09-18T05:03:44;5.70;;;5.20;;
11046;SDS011;5576;50.008;10.596;2023-09-18T05:06:10;5.37;;;4.87;;
11046;SDS011;5576;50.008;10.596;2023-09-18T05:08:36;8.52;;;7.57;;
11046;SDS011;5576;50.008;10.596;2023-09-18T05:11:03;7.45;;;6.72;;
11046;SDS011;5576;50.008;10.596;2023-09-18T05:13:32;6.00;;;5.50;;
11046;SDS011;5576;50.008;10.596;2023-09-18T05:16:01;6.72;;;5.40;;
11046;SDS011;5576;50.008;10.596;2023-09-18T05:18:32;6.55;;;5.82;;
11046;SDS011;5576;50.008;10.596;2023-09-18T05:20:58;6.27;;;5.67;;
11046;SDS011;5576;50.008;10.596;2023-09-18T05:23:24;6.20;;;5.60;;
11046;SDS011;5576;50.008;10.596;2023-09-18T05:25:54;6.82;;;6.05;;
11046;SDS011;5576;50.008;10.596;2023-09-18T05:28:20;6.35;;;5.75;;
11046;SDS011;5576;50.008;10.596;2023-09-18T05:30:46;6.85;;;6.15;;
11046;SDS011;5576;50.008;10.596;2023-09-18T05:33:12;6.82;;;6.13;;
11046;SDS011;5576;50.008;10.596;2023-09-18T05:35:43;6.93;;;5.93;;
11046;SDS011;5576;50.008;10.596;2023-09-18T05:38:11;6.27;;;5.67;;
11046;SDS011;5576;50.008;10.596;2023-09-18T05:40:38;6.10;;;5.53;;
11046;SDS011;5576;50.008;10.596;2023-09-18T05:43:05;5.90;;;5.40;;
11046;SDS011;5576;50.008;10.596;2023-09-18T05:45:32;5.43;;;4.93;;
11046;SDS011;5576;50.008;10.596;2023-09-18T05:47:59;5.82;;;5.10;;
11046;SDS011;5576;50.008;10.596;2023-09-18T05:50:35;5.75;;;5.00;;
11046;SDS011;5576;50.008;10.596;2023-09-18T05:53:06;5.30;;;4.90;;
11046;SDS011;5576;50.008;10.596;2023-09-18T05:55:32;5.93;;;5.28;;
11046;SDS011;5576;50.008;10.596;2023-09-18T05:57:59;5.67;;;5.17;;
11046;SDS011;5576;50.008;10.596;2023-09-18T06:00:25;5.23;;;4.83;;
11046;SDS011;5576;50.008;10.596;2023-09-18T06:02:51;5.63;;;5.07;;
11046;SDS011;5576;50.008;10.596;2023-09-18T06:05:17;5.40;;;4.90;;
11046;SDS011;5576;50.008;10.596;2023-09-18T06:07:47;5.65;;;5.15;;
11046;SDS011;5576;50.008;10.596;2023-09-18T06:10:13;6.13;;;5.53;;
11046;SDS011;5576;50.008;10.596;2023-09-18T06:12:39;5.57;;;5.17;;
11046;SDS011;5576;50.008;10.596;2023-09-18T06:15:09;5.57;;;5.07;;
11046;SDS011;5576;50.008;10.596;2023-09-18T06:17:36;5.65;;;5.15;;
11046;SDS011;5576;50.008;10.596;2023-09-18T06:20:04;5.50;;;5.00;;
11046;SDS011;5576;50.008;10.596;2023-09-18T06:22:35;5.47;;;4.97;;
11046;SDS011;5576;50.008;10.596;2023-09-18T06:25:02;5.60;;;5.10;;
11046;SDS011;5576;50.008;10.596;2023-09-18T06:27:29;5.78;;;5.28;;
11046;SDS011;5576;50.008;10.596;2023-09-18T06:29:55;6.07;;;5.57;;
11046;SDS011;5576;50.008;10.596;2023-09-18T06:32:21;5.80;;;5.20;;
11046;SDS011;5576;50.008;10.596;2023-09-18T06:34:47;5.80;;;5.30;;
11046;SDS011;5576;50.008;10.596;2023-09-18T06:37:16;5.60;;;5.10;;
11046;SDS011;5576;50.008;10.596;2023-09-18T06:39:42;5.50;;;5.00;;
11046;SDS011;5576;50.008;10.596;2023-09-18T06:42:08;5.30;;;4.90;;
11046;SDS011;5576;50.008;10.596;2023-09-18T06:44:34;5.68;;;5.15;;
11046;SDS011;5576;50.008;10.596;2023-09-18T06:47:00;5.78;;;5.20;;
11046;SDS011;5576;50.008;10.596;2023-09-18T06:49:28;5.50;;;5.00;;
11046;SDS011;5576;50.008;10.596;2023-09-18T06:51:54;5.55;;;5.10;;
11046;SDS011;5576;50.008;10.596;2023-09-18T06:54:19;5.50;;;5.00;;
11046;SDS011;5576;50.008;10.596;2023-09-18T06:56:45;5.73;;;5.23;;
11046;SDS011;5576;50.008;10.596;2023-09-18T06:59:11;5.80;;;5.20;;
11046;SDS011;5576;50.008;10.596;2023-09-18T07:01:37;5.40;;;5.00;;
11046;SDS011;5576;50.008;10.596;2023-09-18T07:04:03;5.67;;;5.17;;
11046;SDS011;5576;50.008;10.596;2023-09-18T07:06:30;5.38;;;4.97;;
11046;SDS011;5576;50.008;10.596;2023-09-18T07:08:56;5.40;;;4.90;;
11046;SDS011;5576;50.008;10.596;2023-09-18T07:11:22;5.77;;;5.20;;
11046;SDS011;5576;50.008;10.596;2023-09-18T07:13:47;5.53;;;5.03;;
11046;SDS011;5576;50.008;10.596;2023-09-18T07:16:14;5.20;;;4.80;;
11046;SDS011;5576;50.008;10.596;2023-09-18T07:18:39;5.70;;;5.20;;
11046;SDS011;5576;50.008;10.596;2023-09-18T07:21:06;6.03;;;5.40;;
11046;SDS011;5576;50.008;10.596;2023-09-18T07:23:32;5.68;;;5.18;;
11046;SDS011;5576;50.008;10.596;2023-09-18T07:26:02;5.45;;;5.00;;
11046;SDS011;5576;50.008;10.596;2023-09-18T07:28:28;5.95;;;5.35;;
11046;SDS011;5576;50.008;10.596;2023-09-18T07:30:54;6.47;;;5.88;;
11046;SDS011;5576;50.008;10.596;2023-09-18T07:33:19;5.70;;;5.20;;
11046;SDS011;5576;50.008;10.596;2023-09-18T07:35:49;6.38;;;5.78;;
11046;SDS011;5576;50.008;10.596;2023-09-18T07:38:17;6.78;;;5.80;;
11046;SDS011;5576;50.008;10.596;2023-09-18T07:40:44;6.35;;;5.75;;
11046;SDS011;5576;50.008;10.596;2023-09-18T07:43:11;7.57;;;5.53;;
11046;SDS011;5576;50.008;10.596;2023-09-18T07:45:38;6.33;;;5.73;;
11046;SDS011;5576;50.008;10.596;2023-09-18T07:48:05;6.80;;;5.50;;
11046;SDS011;5576;50.008;10.596;2023-09-18T07:50:32;6.60;;;5.38;;
11046;SDS011;5576;50.008;10.596;2023-09-18T07:52:59;5.70;;;5.20;;
11046;SDS011;5576;50.008;10.596;2023-09-18T07:55:28;5.70;;;5.20;;
11046;SDS011;5576;50.008;10.596;2023-09-18T07:57:55;5.90;;;5.40;;
11046;SDS011;5576;50.008;10.596;2023-09-18T08:00:21;5.78;;;5.28;;
11046;SDS011;5576;50.008;10.596;2023-09-18T08:02:48;6.03;;;5.43;;
11046;SDS011;5576;50.008;10.596;2023-09-18T08:05:19;5.78;;;5.20;;
11046;SDS011;5576;50.008;10.596;2023-09-18T08:07:45;5.73;;;5.17;;
11046;SDS011;5576;50.008;10.596;2023-09-18T08:10:13;5.80;;;5.10;;
11046;SDS011;5576;50.008;10.596;2023-09-18T08:12:38;5.35;;;4.85;;
11046;SDS011;5576;50.008;10.596;2023-09-18T08:15:04;5.82;;;5.00;;
11046;SDS011;5576;50.008;10.596;2023-09-18T08:17:31;5.47;;;4.95;;
11046;SDS011;5576;50.008;10.596;2023-09-18T08:19:57;5.70;;;5.10;;
11046;SDS011;5576;50.008;10.596;2023-09-18T08:22:26;5.63;;;4.78;;
11046;SDS011;5576;50.008;10.596;2023-09-18T08:24:55;5.70;;;5.15;;
11046;SDS011;5576;50.008;10.596;2023-09-18T08:27:23;5.53;;;5.03;;
11046;SDS011;5576;50.008;10.596;2023-09-18T08:29:49;5.80;;;5.07;;
11046;SDS011;5576;50.008;10.596;2023-09-18T08:32:15;6.90;;;4.97;;
11046;SDS011;5576;50.008;10.596;2023-09-18T08:34:41;5.33;;;4.83;;
11046;SDS011;5576;50.008;10.596;2023-09-18T08:37:06;5.60;;;5.05;;
11046;SDS011;5576;50.008;10.596;2023-09-18T08:39:38;5.90;;;4.97;;
11046;SDS011;5576;50.008;10.596;2023-09-18T08:42:04;5.53;;;5.03;;
11046;SDS011;5576;50.008;10.596;2023-09-18T08:44:32;6.38;;;4.60;;
11046;SDS011;5576;50.008;10.596;2023-09-18T08:46:58;5.63;;;4.77;;
11046;SDS011;5576;50.008;10.596;2023-09-18T08:49:25;5.22;;;4.40;;
11046;SDS011;5576;50.008;10.596;2023-09-18T08:51:54;6.22;;;4.43;;
11046;SDS011;5576;50.008;10.596;2023-09-18T08:54:22;6.68;;;4.40;;
11046;SDS011;5576;50.008;10.596;2023-09-18T08:56:50;4.97;;;3.90;;
11046;SDS011;5576;50.008;10.596;2023-09-18T08:59:17;6.10;;;4.25;;
11046;SDS011;5576;50.008;10.596;2023-09-18T09:01:44;4.57;;;3.80;;
11046;SDS011;5576;50.008;10.596;2023-09-18T09:04:10;6.00;;;4.30;;
11046;SDS011;5576;50.008;10.596;2023-09-18T09:06:36;5.35;;;3.88;;
11046;SDS011;5576;50.008;10.596;2023-09-18T09:09:02;6.85;;;4.00;;
11046;SDS011;5576;50.008;10.596;2023-09-18T09:11:28;6.43;;;4.07;;
11046;SDS011;5576;50.008;10.596;2023-09-18T09:14:16;7.05;;;3.95;;
11046;SDS011;5576;50.008;10.596;2023-09-18T09:16:59;5.53;;;3.40;;
11046;SDS011;5576;50.008;10.596;2023-09-18T09:19:29;7.18;;;3.88;;
11046;SDS011;5576;50.008;10.596;2023-09-18T09:22:18;5.90;;;3.63;;
11046;SDS011;5576;50.008;10.596;2023-09-18T09:24:45;5.82;;;2.95;;
11046;SDS011;5576;50.008;10.596;2023-09-18T09:27:11;7.10;;;2.70;;
11046;SDS011;5576;50.008;10.596;2023-09-18T09:29:39;4.95;;;2.55;;
11046;SDS011;5576;50.008;10.596;2023-09-18T09:32:13;4.38;;;2.53;;
11046;SDS011;5576;50.008;10.596;2023-09-18T09:34:43;4.28;;;2.40;;
11046;SDS011;5576;50.008;10.596;2023-09-18T09:37:12;5.90;;;3.08;;
11046;SDS011;5576;50.008;10.596;2023-09-18T09:39:54;7.05;;;3.10;;
11046;SDS011;5576;50.008;10.596;2023-09-18T09:42:22;4.75;;;2.80;;
11046;SDS011;5576;50.008;10.596;2023-09-18T09:45:02;5.13;;;2.70;;
11046;SDS011;5576;50.008;10.596;2023-09-18T09:47:33;6.72;;;2.90;;
11046;SDS011;5576;50.008;10.596;2023-09-18T09:50:10;6.05;;;2.65;;
11046;SDS011;5576;50.008;10.596;2023-09-18T09:52:42;7.72;;;2.70;;
11046;SDS011;5576;50.008;10.596;2023-09-18T09:55:17;6.00;;;2.65;;
11046;SDS011;5576;50.008;10.596;2023-09-18T09:57:47;4.70;;;2.30;;
11046;SDS011;5576;50.008;10.596;2023-09-18T10:00:14;4.20;;;2.20;;
11046;SDS011;5576;50.008;10.596;2023-09-18T10:02:54;5.85;;;2.50;;
11046;SDS011;5576;50.008;10.596;2023-09-18T10:05:22;4.35;;;2.25;;
11046;SDS011;5576;50.008;10.596;2023-09-18T10:07:52;7.20;;;2.30;;
11046;SDS011;5576;50.008;10.596;2023-09-18T10:10:19;6.05;;;2.13;;
11046;SDS011;5576;50.008;10.596;2023-09-18T10:12:45;5.87;;;2.10;;
11046;SDS011;5576;50.008;10.596;2023-09-18T10:15:12;6.50;;;2.25;;
11046;SDS011;5576;50.008;10.596;2023-09-18T10:17:41;6.30;;;2.23;;
11046;SDS011;5576;50.008;10.596;2023-09-18T10:20:12;4.18;;;2.17;;
11046;SDS011;5576;50.008;10.596;2023-09-18T10:22:45;3.95;;;1.90;;
11046;SDS011;5576;50.008;10.596;2023-09-18T10:27:47;5.33;;;2.00;;
11046;SDS011;5576;50.008;10.596;2023-09-18T10:30:16;5.20;;;1.80;;
11046;SDS011;5576;50.008;10.596;2023-09-18T10:32:44;4.65;;;2.00;;
11046;SDS011;5576;50.008;10.596;2023-09-18T10:35:11;4.90;;;1.98;;
11046;SDS011;5576;50.008;10.596;2023-09-18T10:37:37;6.23;;;1.93;;
11046;SDS011;5576;50.008;10.596;2023-09-18T10:40:05;5.35;;;1.95;;
11046;SDS011;5576;50.008;10.596;2023-09-18T10:42:35;4.25;;;1.70;;
11046;SDS011;5576;50.008;10.596;2023-09-18T10:45:04;6.43;;;1.83;;
11046;SDS011;5576;50.008;10.596;2023-09-18T10:47:32;5.87;;;1.87;;
11046;SDS011;5576;50.008;10.596;2023-09-18T10:49:59;4.22;;;1.80;;
11046;SDS011;5576;50.008;10.596;2023-09-18T10:52:26;5.45;;;2.20;;
11046;SDS011;5576;50.008;10.596;2023-09-18T10:54:52;4.47;;;1.90;;
11046;SDS011;5576;50.008;10.596;2023-09-18T10:57:18;5.47;;;1.90;;
11046;SDS011;5576;50.008;10.596;2023-09-18T10:59:44;4.28;;;1.90;;
11046;SDS011;5576;50.008;10.596;2023-09-18T11:02:14;4.53;;;1.70;;
11046;SDS011;5576;50.008;10.596;2023-09-18T11:04:45;4.23;;;1.77;;
11046;SDS011;5576;50.008;10.596;2023-09-18T11:07:26;3.80;;;1.80;;
11046;SDS011;5576;50.008;10.596;2023-09-18T11:09:51;4.07;;;1.70;;
11046;SDS011;5576;50.008;10.596;2023-09-18T11:12:20;4.87;;;1.67;;
11046;SDS011;5576;50.008;10.596;2023-09-18T11:15:25;5.80;;;1.85;;
11046;SDS011;5576;50.008;10.596;2023-09-18T11:17:59;3.85;;;1.90;;
11046;SDS011;5576;50.008;10.596;2023-09-18T11:20:28;6.20;;;1.83;;
11046;SDS011;5576;50.008;10.596;2023-09-18T11:22:56;4.30;;;1.70;;
11046;SDS011;5576;50.008;10.596;2023-09-18T11:25:40;4.55;;;1.98;;
11046;SDS011;5576;50.008;10.596;2023-09-18T11:28:13;3.80;;;1.70;;
11046;SDS011;5576;50.008;10.596;2023-09-18T11:30:50;6.27;;;1.73;;
11046;SDS011;5576;50.008;10.596;2023-09-18T11:33:29;5.55;;;2.00;;
11046;SDS011;5576;50.008;10.596;2023-09-18T11:35:56;4.30;;;1.80;;
11046;SDS011;5576;50.008;10.596;2023-09-18T11:38:23;3.13;;;1.40;;
11046;SDS011;5576;50.008;10.596;2023-09-18T11:40:49;4.00;;;1.60;;
11046;SDS011;5576;50.008;10.596;2023-09-18T11:43:19;3.80;;;1.67;;
11046;SDS011;5576;50.008;10.596;2023-09-18T11:45:51;2.47;;;1.45;;
11046;SDS011;5576;50.008;10.596;2023-09-18T11:48:20;3.67;;;1.60;;
11046;SDS011;5576;50.008;10.596;2023-09-18T11:50:48;3.40;;;1.40;;
11046;SDS011;5576;50.008;10.596;2023-09-18T11:53:16;2.67;;;1.50;;
11046;SDS011;5576;50.008;10.596;2023-09-18T11:55:44;3.05;;;1.60;;
11046;SDS011;5576;50.008;10.596;2023-09-18T11:58:10;5.63;;;1.52;;
11046;SDS011;5576;50.008;10.596;2023-09-18T12:00:39;3.53;;;1.70;;
11046;SDS011;5576;50.008;10.596;2023-09-18T12:03:14;5.43;;;1.85;;
11046;SDS011;5576;50.008;10.596;2023-09-18T12:05:53;4.20;;;1.80;;
11046;SDS011;5576;50.008;10.596;2023-09-18T12:08:23;4.73;;;1.80;;
11046;SDS011;5576;50.008;10.596;2023-09-18T12:10:52;4.43;;;1.77;;
11046;SDS011;5576;50.008;10.596;2023-09-18T12:13:24;3.75;;;1.60;;
11046;SDS011;5576;50.008;10.596;2023-09-18T12:15:55;4.63;;;1.55;;
11046;SDS011;5576;50.008;10.596;2023-09-18T12:18:22;3.97;;;1.90;;
11046;SDS011;5576;50.008;10.596;2023-09-18T12:20:52;5.22;;;1.70;;
11046;SDS011;5576;50.008;10.596;2023-09-18T12:23:18;4.20;;;1.80;;
11046;SDS011;5576;50.008;10.596;2023-09-18T12:25:50;3.22;;;1.70;;
11046;SDS011;5576;50.008;10.596;2023-09-18T12:28:22;4.18;;;1.70;;
11046;SDS011;5576;50.008;10.596;2023-09-18T12:30:50;3.67;;;1.52;;
11046;SDS011;5576;50.008;10.596;2023-09-18T12:33:20;4.50;;;1.75;;
11046;SDS011;5576;50.008;10.596;2023-09-18T12:35:49;3.53;;;1.50;;
11046;SDS011;5576;50.008;10.596;2023-09-18T12:38:19;3.77;;;1.60;;
11046;SDS011;5576;50.008;10.596;2023-09-18T12:40:49;5.00;;;1.63;;
11046;SDS011;5576;50.008;10.596;2023-09-18T12:43:15;3.42;;;1.60;;
11046;SDS011;5576;50.008;10.596;2023-09-18T12:45:42;3.92;;;1.50;;
11046;SDS011;5576;50.008;10.596;2023-09-18T12:48:09;3.10;;;1.40;;
11046;SDS011;5576;50.008;10.596;2023-09-18T13:02:57;3.20;;;1.60;;
11046;SDS011;5576;50.008;10.596;2023-09-18T13:05:23;5.90;;;1.75;;
11046;SDS011;5576;50.008;10.596;2023-09-18T13:07:51;3.93;;;1.60;;
11046;SDS011;5576;50.008;10.596;2023-09-18T13:10:18;3.37;;;1.60;;
11046;SDS011;5576;50.008;10.596;2023-09-18T13:12:53;3.92;;;1.58;;
11046;SDS011;5576;50.008;10.596;2023-09-18T13:15:24;3.60;;;1.60;;
11046;SDS011;5576;50.008;10.596;2023-09-18T13:17:58;6.35;;;1.63;;
11046;SDS011;5576;50.008;10.596;2023-09-18T13:20:29;4.78;;;1.67;;
11046;SDS011;5576;50.008;10.596;2023-09-18T13:22:58;4.00;;;1.60;;
11046;SDS011;5576;50.008;10.596;2023-09-18T13:25:32;3.80;;;1.70;;
11046;SDS011;5576;50.008;10.596;2023-09-18T13:28:00;4.07;;;1.70;;
11046;SDS011;5576;50.008;10.596;2023-09-18T13:33:03;5.00;;;1.63;;
11046;SDS011;5576;50.008;10.596;2023-09-18T13:35:32;3.53;;;1.70;;
11046;SDS011;5576;50.008;10.596;2023-09-18T13:37:59;2.63;;;1.57;;
11046;SDS011;5576;50.008;10.596;2023-09-18T13:40:25;4.53;;;1.77;;
11046;SDS011;5576;50.008;10.596;2023-09-18T13:42:53;2.92;;;1.52;;
11046;SDS011;5576;50.008;10.596;2023-09-18T13:45:19;4.90;;;1.70;;
11046;SDS011;5576;50.008;10.596;2023-09-18T13:47:45;4.50;;;1.92;;
11046;SDS011;5576;50.008;10.596;2023-09-18T13:50:14;3.58;;;1.58;;
11046;SDS011;5576;50.008;10.596;2023-09-18T13:52:40;3.10;;;1.40;;
11046;SDS011;5576;50.008;10.596;2023-09-18T13:55:14;4.20;;;1.65;;
11046;SDS011;5576;50.008;10.596;2023-09-18T13:57:40;3.47;;;1.40;;
11046;SDS011;5576;50.008;10.596;2023-09-18T14:00:09;3.92;;;1.75;;
11046;SDS011;5576;50.008;10.596;2023-09-18T14:02:41;3.92;;;1.63;;
11046;SDS011;5576;50.008;10.596;2023-09-18T14:05:16;4.03;;;1.55;;
11046;SDS011;5576;50.008;10.596;2023-09-18T14:07:48;3.03;;;1.50;;
11046;SDS011;5576;50.008;10.596;2023-09-18T14:10:14;3.45;;;1.35;;
11046;SDS011;5576;50.008;10.596;2023-09-18T14:12:48;3.90;;;1.65;;
11046;SDS011;5576;50.008;10.596;2023-09-18T14:15:21;2.72;;;1.40;;
11046;SDS011;5576;50.008;10.596;2023-09-18T14:17:46;3.28;;;1.63;;
11046;SDS011;5576;50.008;10.596;2023-09-18T14:20:13;3.43;;;1.63;;
11046;SDS011;5576;50.008;10.596;2023-09-18T14:22:40;3.55;;;1.50;;
11046;SDS011;5576;50.008;10.596;2023-09-18T14:25:06;3.87;;;1.60;;
11046;SDS011;5576;50.008;10.596;2023-09-18T14:27:34;2.20;;;1.33;;
11046;SDS011;5576;50.008;10.596;2023-09-18T14:30:01;3.53;;;1.50;;
11046;SDS011;5576;50.008;10.596;2023-09-18T14:32:34;3.20;;;1.40;;
11046;SDS011;5576;50.008;10.596;2023-09-18T14:35:02;2.33;;;1.48;;
11046;SDS011;5576;50.008;10.596;2023-09-18T14:37:33;2.83;;;1.42;;
11046;SDS011;5576;50.008;10.596;2023-09-18T14:39:59;1.90;;;1.30;;
11046;SDS011;5576;50.008;10.596;2023-09-18T14:42:28;3.20;;;1.70;;
11046;SDS011;5576;50.008;10.596;2023-09-18T14:44:56;2.83;;;1.37;;
11046;SDS011;5576;50.008;10.596;2023-09-18T14:47:22;2.83;;;1.42;;
11046;SDS011;5576;50.008;10.596;2023-09-18T14:49:48;2.00;;;1.30;;
11046;SDS011;5576;50.008;10.596;2023-09-18T14:52:14;2.28;;;1.23;;
11046;SDS011;5576;50.008;10.596;2023-09-18T14:54:41;2.95;;;1.40;;
11046;SDS011;5576;50.008;10.596;2023-09-18T14:57:07;2.17;;;1.37;;
11046;SDS011;5576;50.008;10.596;2023-09-18T14:59:32;1.75;;;1.20;;
11046;SDS011;5576;50.008;10.596;2023-09-18T15:01:58;3.03;;;1.30;;
11046;SDS011;5576;50.008;10.596;2023-09-18T15:04:24;2.13;;;1.10;;
11046;SDS011;5576;50.008;10.596;2023-09-18T15:06:50;1.92;;;1.10;;
11046;SDS011;5576;50.008;10.596;2023-09-18T15:09:15;1.55;;;0.98;;
11046;SDS011;5576;50.008;10.596;2023-09-18T15:11:46;5.40;;;2.97;;
11046;SDS011;5576;50.008;10.596;2023-09-18T15:14:11;2.58;;;1.20;;